sensor_id;sensor_type;location;lat;lon;timestamp;pressure;altitude;pressure_sealevel;temperature;humidity
19086;BME280;9675;51.538;6.728;2023-04-27T00:02:17;101664.59;;;9.50;60.20
19086;BME280;9675;51.538;6.728;2023-04-27T00:04:44;101662.59;;;9.46;60.28
19086;BME280;9675;51.538;6.728;2023-04-27T00:07:11;101665.84;;;9.43;59.55
19086;BME280;9675;51.538;6.728;2023-04-27T00:09:38;101673.38;;;9.40;60.15
19086;BME280;9675;51.538;6.728;2023-04-27T00:12:06;101672.28;;;9.36;60.08
19086;BME280;9675;51.538;6.728;2023-04-27T00:14:33;101679.69;;;9.32;60.06
19086;BME280;9675;51.538;6.728;2023-04-27T00:17:01;101682.91;;;9.29;60.17
19086;BME280;9675;51.538;6.728;2023-04-27T00:19:28;101679.47;;;9.29;60.55
19086;BME280;9675;51.538;6.728;2023-04-27T00:21:55;101675.91;;;9.27;60.86
19086;BME280;9675;51.538;6.728;2023-04-27T00:24:24;101676.56;;;9.24;61.13
19086;BME280;9675;51.538;6.728;2023-04-27T00:26:52;101675.50;;;9.21;61.22
19086;BME280;9675;51.538;6.728;2023-04-27T00:29:19;101677.84;;;9.18;60.51
19086;BME280;9675;51.538;6.728;2023-04-27T00:31:46;101683.56;;;9.14;61.20
19086;BME280;9675;51.538;6.728;2023-04-27T00:34:14;101677.31;;;9.10;60.88
19086;BME280;9675;51.538;6.728;2023-04-27T00:36:41;101690.06;;;9.09;61.30
19086;BME280;9675;51.538;6.728;2023-04-27T00:39:08;101685.63;;;9.06;61.72
19086;BME280;9675;51.538;6.728;2023-04-27T00:41:37;101693.09;;;9.03;61.42
19086;BME280;9675;51.538;6.728;2023-04-27T00:44:04;101690.31;;;9.00;61.68
19086;BME280;9675;51.538;6.728;2023-04-27T00:46:32;101687.53;;;8.97;62.47
19086;BME280;9675;51.538;6.728;2023-04-27T00:49:00;101686.53;;;8.95;61.89
19086;BME280;9675;51.538;6.728;2023-04-27T00:51:29;101688.81;;;8.90;62.28
19086;BME280;9675;51.538;6.728;2023-04-27T00:53:57;101695.50;;;8.88;62.75
19086;BME280;9675;51.538;6.728;2023-04-27T00:56:24;101691.59;;;8.82;63.25
19086;BME280;9675;51.538;6.728;2023-04-27T00:58:51;101692.38;;;8.81;63.28
19086;BME280;9675;51.538;6.728;2023-04-27T01:01:18;101700.00;;;8.79;64.17
19086;BME280;9675;51.538;6.728;2023-04-27T01:03:46;101697.09;;;8.75;65.10
19086;BME280;9675;51.538;6.728;2023-04-27T01:06:13;101697.78;;;8.72;64.31
19086;BME280;9675;51.538;6.728;2023-04-27T01:08:41;101705.28;;;8.69;65.24
19086;BME280;9675;51.538;6.728;2023-04-27T01:11:08;101695.56;;;8.65;65.33
19086;BME280;9675;51.538;6.728;2023-04-27T01:13:35;101691.09;;;8.63;65.26
19086;BME280;9675;51.538;6.728;2023-04-27T01:16:03;101694.31;;;8.60;65.51
19086;BME280;9675;51.538;6.728;2023-04-27T01:18:30;101693.34;;;8.58;66.40
19086;BME280;9675;51.538;6.728;2023-04-27T01:20:58;101696.69;;;8.57;66.59
19086;BME280;9675;51.538;6.728;2023-04-27T01:23:27;101695.47;;;8.52;66.11
19086;BME280;9675;51.538;6.728;2023-04-27T01:25:54;101702.97;;;8.49;66.23
19086;BME280;9675;51.538;6.728;2023-04-27T01:28:21;101703.63;;;8.46;66.99
19086;BME280;9675;51.538;6.728;2023-04-27T01:30:48;101708.63;;;8.45;67.83
19086;BME280;9675;51.538;6.728;2023-04-27T01:33:15;101704.06;;;8.41;68.04
19086;BME280;9675;51.538;6.728;2023-04-27T01:35:42;101701.31;;;8.38;68.53
19086;BME280;9675;51.538;6.728;2023-04-27T01:38:09;101708.75;;;8.35;69.06
19086;BME280;9675;51.538;6.728;2023-04-27T01:40:38;101701.63;;;8.31;68.44
19086;BME280;9675;51.538;6.728;2023-04-27T01:43:05;101703.19;;;8.29;69.20
19086;BME280;9675;51.538;6.728;2023-04-27T01:45:32;101702.03;;;8.25;70.10
19086;BME280;9675;51.538;6.728;2023-04-27T01:47:58;101700.94;;;8.22;69.79
19086;BME280;9675;51.538;6.728;2023-04-27T01:50:26;101702.50;;;8.20;70.38
19086;BME280;9675;51.538;6.728;2023-04-27T01:52:53;101707.41;;;8.17;70.11
19086;BME280;9675;51.538;6.728;2023-04-27T01:55:20;101712.31;;;8.13;71.02
19086;BME280;9675;51.538;6.728;2023-04-27T01:57:48;101711.19;;;8.10;70.32
19086;BME280;9675;51.538;6.728;2023-04-27T02:00:16;101721.25;;;8.07;70.61
19086;BME280;9675;51.538;6.728;2023-04-27T02:02:43;101721.00;;;8.04;71.36
19086;BME280;9675;51.538;6.728;2023-04-27T02:05:10;101716.56;;;8.01;71.21
19086;BME280;9675;51.538;6.728;2023-04-27T02:07:37;101718.09;;;7.99;71.61
19086;BME280;9675;51.538;6.728;2023-04-27T02:10:06;101721.22;;;7.95;72.65
19086;BME280;9675;51.538;6.728;2023-04-27T02:12:33;101722.69;;;7.92;71.76
19086;BME280;9675;51.538;6.728;2023-04-27T02:15:01;101720.66;;;7.88;72.65
19086;BME280;9675;51.538;6.728;2023-04-27T02:17:29;101715.44;;;7.86;73.12
19086;BME280;9675;51.538;6.728;2023-04-27T02:19:59;101717.88;;;7.85;72.49
19086;BME280;9675;51.538;6.728;2023-04-27T02:22:26;101713.44;;;7.82;73.08
19086;BME280;9675;51.538;6.728;2023-04-27T02:24:53;101703.81;;;7.80;73.94
19086;BME280;9675;51.538;6.728;2023-04-27T02:27:20;101709.63;;;7.77;73.54
19086;BME280;9675;51.538;6.728;2023-04-27T02:29:47;101711.16;;;7.75;72.84
19086;BME280;9675;51.538;6.728;2023-04-27T02:32:16;101711.72;;;7.71;73.90
19086;BME280;9675;51.538;6.728;2023-04-27T02:34:43;101709.81;;;7.68;73.18
19086;BME280;9675;51.538;6.728;2023-04-27T02:37:10;101713.81;;;7.65;73.24
19086;BME280;9675;51.538;6.728;2023-04-27T02:39:37;101712.03;;;7.64;74.86
19086;BME280;9675;51.538;6.728;2023-04-27T02:42:04;101712.59;;;7.60;74.29
19086;BME280;9675;51.538;6.728;2023-04-27T02:44:31;101715.81;;;7.57;75.43
19086;BME280;9675;51.538;6.728;2023-04-27T02:46:58;101715.47;;;7.53;75.69
19086;BME280;9675;51.538;6.728;2023-04-27T02:49:27;101711.09;;;7.52;74.29
19086;BME280;9675;51.538;6.728;2023-04-27T02:51:58;101705.75;;;7.49;75.17
19086;BME280;9675;51.538;6.728;2023-04-27T02:54:25;101702.19;;;7.47;76.22
19086;BME280;9675;51.538;6.728;2023-04-27T02:56:52;101695.31;;;7.46;74.75
19086;BME280;9675;51.538;6.728;2023-04-27T02:59:19;101695.81;;;7.42;75.37
19086;BME280;9675;51.538;6.728;2023-04-27T03:01:46;101694.06;;;7.41;75.65
19086;BME280;9675;51.538;6.728;2023-04-27T03:04:13;101693.81;;;7.38;75.56
19086;BME280;9675;51.538;6.728;2023-04-27T03:06:42;101684.34;;;7.37;76.00
19086;BME280;9675;51.538;6.728;2023-04-27T03:09:09;101679.00;;;7.34;76.55
19086;BME280;9675;51.538;6.728;2023-04-27T03:11:37;101677.97;;;7.32;76.83
19086;BME280;9675;51.538;6.728;2023-04-27T03:14:04;101686.22;;;7.28;77.18
19086;BME280;9675;51.538;6.728;2023-04-27T03:16:32;101684.97;;;7.22;76.67
19086;BME280;9675;51.538;6.728;2023-04-27T03:18:59;101685.63;;;7.20;77.67
19086;BME280;9675;51.538;6.728;2023-04-27T03:21:26;101679.50;;;7.18;77.89
19086;BME280;9675;51.538;6.728;2023-04-27T03:23:54;101677.56;;;7.15;78.64
19086;BME280;9675;51.538;6.728;2023-04-27T03:26:21;101681.84;;;7.15;78.02
19086;BME280;9675;51.538;6.728;2023-04-27T03:28:48;101682.47;;;7.12;79.17
19086;BME280;9675;51.538;6.728;2023-04-27T03:31:15;101684.91;;;7.11;79.10
19086;BME280;9675;51.538;6.728;2023-04-27T03:33:42;101697.63;;;7.09;79.10
19086;BME280;9675;51.538;6.728;2023-04-27T03:36:09;101684.56;;;7.06;80.72
19086;BME280;9675;51.538;6.728;2023-04-27T03:38:37;101690.44;;;7.05;79.91
19086;BME280;9675;51.538;6.728;2023-04-27T03:41:05;101698.94;;;7.04;80.11
19086;BME280;9675;51.538;6.728;2023-04-27T03:43:32;101697.91;;;7.02;80.44
19086;BME280;9675;51.538;6.728;2023-04-27T03:45:59;101696.00;;;7.00;81.02
19086;BME280;9675;51.538;6.728;2023-04-27T03:48:26;101700.81;;;6.85;83.39
19086;BME280;9675;51.538;6.728;2023-04-27T03:50:53;101702.91;;;6.79;84.52
19086;BME280;9675;51.538;6.728;2023-04-27T03:53:20;101701.00;;;6.76;85.12
19086;BME280;9675;51.538;6.728;2023-04-27T03:55:47;101701.66;;;6.74;84.68
19086;BME280;9675;51.538;6.728;2023-04-27T03:58:16;101705.78;;;6.72;84.99
19086;BME280;9675;51.538;6.728;2023-04-27T04:00:43;101709.88;;;6.70;84.50
19086;BME280;9675;51.538;6.728;2023-04-27T04:03:10;101714.75;;;6.67;85.43
19086;BME280;9675;51.538;6.728;2023-04-27T04:05:37;101724.09;;;6.66;84.34
19086;BME280;9675;51.538;6.728;2023-04-27T04:08:04;101728.09;;;6.63;84.55
19086;BME280;9675;51.538;6.728;2023-04-27T04:10:31;101721.94;;;6.61;84.77
19086;BME280;9675;51.538;6.728;2023-04-27T04:12:58;101720.91;;;6.59;85.35
19086;BME280;9675;51.538;6.728;2023-04-27T04:15:26;101720.81;;;6.57;84.64
19086;BME280;9675;51.538;6.728;2023-04-27T04:17:53;101720.56;;;6.54;85.30
19086;BME280;9675;51.538;6.728;2023-04-27T04:20:20;101722.22;;;6.54;85.12
19086;BME280;9675;51.538;6.728;2023-04-27T04:22:47;101716.88;;;6.51;86.25
19086;BME280;9675;51.538;6.728;2023-04-27T04:25:14;101727.88;;;6.50;85.82
19086;BME280;9675;51.538;6.728;2023-04-27T04:27:41;101725.09;;;6.47;86.00
19086;BME280;9675;51.538;6.728;2023-04-27T04:30:10;101724.81;;;6.44;85.83
19086;BME280;9675;51.538;6.728;2023-04-27T04:32:38;101718.72;;;6.42;86.01
19086;BME280;9675;51.538;6.728;2023-04-27T04:35:07;101719.47;;;6.40;86.09
19086;BME280;9675;51.538;6.728;2023-04-27T04:37:34;101722.81;;;6.39;86.01
19086;BME280;9675;51.538;6.728;2023-04-27T04:40:05;101727.69;;;6.36;86.83
19086;BME280;9675;51.538;6.728;2023-04-27T04:42:34;101732.53;;;6.33;86.52
19086;BME280;9675;51.538;6.728;2023-04-27T04:45:03;101722.06;;;6.30;87.01
19086;BME280;9675;51.538;6.728;2023-04-27T04:47:30;101730.50;;;6.29;87.39
19086;BME280;9675;51.538;6.728;2023-04-27T04:50:00;101729.47;;;6.27;87.44
19086;BME280;9675;51.538;6.728;2023-04-27T04:52:27;101737.16;;;6.27;88.37
19086;BME280;9675;51.538;6.728;2023-04-27T04:54:54;101732.69;;;6.25;87.29
19086;BME280;9675;51.538;6.728;2023-04-27T04:57:21;101734.13;;;6.21;88.00
19086;BME280;9675;51.538;6.728;2023-04-27T04:59:48;101734.00;;;6.20;88.72
19086;BME280;9675;51.538;6.728;2023-04-27T05:02:15;101732.19;;;6.19;88.80
19086;BME280;9675;51.538;6.728;2023-04-27T05:04:42;101742.28;;;6.17;89.13
19086;BME280;9675;51.538;6.728;2023-04-27T05:07:11;101737.06;;;6.16;88.99
19086;BME280;9675;51.538;6.728;2023-04-27T05:09:38;101747.03;;;6.13;89.06
19086;BME280;9675;51.538;6.728;2023-04-27T05:12:06;101747.94;;;6.13;89.78
19086;BME280;9675;51.538;6.728;2023-04-27T05:14:33;101746.94;;;6.11;89.19
19086;BME280;9675;51.538;6.728;2023-04-27T05:17:00;101751.00;;;6.09;89.85
19086;BME280;9675;51.538;6.728;2023-04-27T05:19:28;101757.78;;;6.09;90.59
19086;BME280;9675;51.538;6.728;2023-04-27T05:21:56;101761.25;;;6.09;91.21
19086;BME280;9675;51.538;6.728;2023-04-27T05:24:26;101765.22;;;6.06;90.47
19086;BME280;9675;51.538;6.728;2023-04-27T05:26:53;101759.22;;;6.05;90.92
19086;BME280;9675;51.538;6.728;2023-04-27T05:29:20;101769.44;;;6.05;91.93
19086;BME280;9675;51.538;6.728;2023-04-27T05:31:47;101776.34;;;6.06;91.02
19086;BME280;9675;51.538;6.728;2023-04-27T05:34:14;101777.59;;;6.01;93.07
19086;BME280;9675;51.538;6.728;2023-04-27T05:36:42;101777.59;;;6.01;92.95
19086;BME280;9675;51.538;6.728;2023-04-27T05:39:09;101768.16;;;6.00;93.20
19086;BME280;9675;51.538;6.728;2023-04-27T05:41:37;101775.84;;;6.00;93.83
19086;BME280;9675;51.538;6.728;2023-04-27T05:44:05;101767.38;;;6.01;94.56
19086;BME280;9675;51.538;6.728;2023-04-27T05:46:32;101769.16;;;6.02;94.55
19086;BME280;9675;51.538;6.728;2023-04-27T05:48:59;101774.28;;;6.02;94.75
19086;BME280;9675;51.538;6.728;2023-04-27T05:51:27;101780.16;;;6.01;94.93
19086;BME280;9675;51.538;6.728;2023-04-27T05:53:54;101778.41;;;6.00;96.39
19086;BME280;9675;51.538;6.728;2023-04-27T05:56:21;101777.72;;;6.03;96.01
19086;BME280;9675;51.538;6.728;2023-04-27T05:58:50;101781.47;;;6.06;95.98
19086;BME280;9675;51.538;6.728;2023-04-27T06:01:17;101789.13;;;6.06;96.95
19086;BME280;9675;51.538;6.728;2023-04-27T06:03:44;101785.69;;;6.06;97.09
19086;BME280;9675;51.538;6.728;2023-04-27T06:06:11;101788.34;;;6.07;97.53
19086;BME280;9675;51.538;6.728;2023-04-27T06:08:38;101788.59;;;6.10;97.26
19086;BME280;9675;51.538;6.728;2023-04-27T06:11:05;101788.72;;;6.12;96.70
19086;BME280;9675;51.538;6.728;2023-04-27T06:13:32;101787.19;;;6.14;98.34
19086;BME280;9675;51.538;6.728;2023-04-27T06:16:01;101778.88;;;6.16;97.79
19086;BME280;9675;51.538;6.728;2023-04-27T06:18:28;101779.13;;;6.19;98.07
19086;BME280;9675;51.538;6.728;2023-04-27T06:20:58;101770.91;;;6.23;98.72
19086;BME280;9675;51.538;6.728;2023-04-27T06:23:26;101774.50;;;6.25;97.62
19086;BME280;9675;51.538;6.728;2023-04-27T06:25:53;101776.53;;;6.29;98.47
19086;BME280;9675;51.538;6.728;2023-04-27T06:28:21;101778.84;;;6.36;98.15
19086;BME280;9675;51.538;6.728;2023-04-27T06:30:48;101779.97;;;6.40;97.38
19086;BME280;9675;51.538;6.728;2023-04-27T06:33:16;101782.13;;;6.46;96.44
19086;BME280;9675;51.538;6.728;2023-04-27T06:35:44;101784.91;;;6.49;95.36
19086;BME280;9675;51.538;6.728;2023-04-27T06:38:11;101786.09;;;6.52;95.00
19086;BME280;9675;51.538;6.728;2023-04-27T06:40:38;101786.56;;;6.58;94.86
19086;BME280;9675;51.538;6.728;2023-04-27T06:43:05;101780.94;;;6.62;93.83
19086;BME280;9675;51.538;6.728;2023-04-27T06:45:32;101776.28;;;6.68;92.83
19086;BME280;9675;51.538;6.728;2023-04-27T06:47:59;101784.34;;;6.73;91.99
19086;BME280;9675;51.538;6.728;2023-04-27T06:50:27;101780.50;;;6.78;91.11
19086;BME280;9675;51.538;6.728;2023-04-27T06:52:55;101777.41;;;6.82;90.36
19086;BME280;9675;51.538;6.728;2023-04-27T06:55:22;101779.66;;;6.89;89.98
19086;BME280;9675;51.538;6.728;2023-04-27T06:57:49;101772.59;;;6.97;88.21
19086;BME280;9675;51.538;6.728;2023-04-27T07:00:18;101775.75;;;7.04;87.01
19086;BME280;9675;51.538;6.728;2023-04-27T07:02:45;101771.09;;;7.10;84.31
19086;BME280;9675;51.538;6.728;2023-04-27T07:05:12;101769.78;;;7.15;83.73
19086;BME280;9675;51.538;6.728;2023-04-27T07:07:41;101771.03;;;7.20;83.59
19086;BME280;9675;51.538;6.728;2023-04-27T07:10:08;101771.41;;;7.25;82.47
19086;BME280;9675;51.538;6.728;2023-04-27T07:12:36;101772.75;;;7.32;80.44
19086;BME280;9675;51.538;6.728;2023-04-27T07:15:05;101771.56;;;7.38;80.29
19086;BME280;9675;51.538;6.728;2023-04-27T07:17:32;101772.03;;;7.44;78.77
19086;BME280;9675;51.538;6.728;2023-04-27T07:20:01;101769.81;;;7.49;78.57
19086;BME280;9675;51.538;6.728;2023-04-27T07:22:28;101766.16;;;7.57;77.74
19086;BME280;9675;51.538;6.728;2023-04-27T07:24:57;101765.09;;;7.65;76.46
19086;BME280;9675;51.538;6.728;2023-04-27T07:27:24;101770.69;;;7.71;77.04
19086;BME280;9675;51.538;6.728;2023-04-27T07:29:51;101771.16;;;7.77;76.66
19086;BME280;9675;51.538;6.728;2023-04-27T07:32:18;101768.25;;;7.84;75.74
19086;BME280;9675;51.538;6.728;2023-04-27T07:34:46;101773.16;;;7.93;74.87
19086;BME280;9675;51.538;6.728;2023-04-27T07:37:13;101768.63;;;8.00;75.59
19086;BME280;9675;51.538;6.728;2023-04-27T07:39:41;101773.53;;;8.09;74.19
19086;BME280;9675;51.538;6.728;2023-04-27T07:42:11;101767.31;;;8.17;73.71
19086;BME280;9675;51.538;6.728;2023-04-27T07:44:38;101766.31;;;8.27;73.87
19086;BME280;9675;51.538;6.728;2023-04-27T07:47:05;101762.44;;;8.32;73.25
19086;BME280;9675;51.538;6.728;2023-04-27T07:49:32;101769.00;;;8.40;73.35
19086;BME280;9675;51.538;6.728;2023-04-27T07:52:00;101768.81;;;8.48;71.49
19086;BME280;9675;51.538;6.728;2023-04-27T07:54:27;101767.00;;;8.59;71.18
19086;BME280;9675;51.538;6.728;2023-04-27T07:56:54;101764.19;;;8.68;70.18
19086;BME280;9675;51.538;6.728;2023-04-27T07:59:23;101769.22;;;8.78;69.51
19086;BME280;9675;51.538;6.728;2023-04-27T08:01:50;101760.59;;;8.89;69.95
19086;BME280;9675;51.538;6.728;2023-04-27T08:04:17;101762.25;;;9.00;67.82
19086;BME280;9675;51.538;6.728;2023-04-27T08:06:44;101755.06;;;9.08;66.37
19086;BME280;9675;51.538;6.728;2023-04-27T08:09:11;101761.84;;;9.19;65.39
19086;BME280;9675;51.538;6.728;2023-04-27T08:11:38;101762.47;;;9.28;64.03
19086;BME280;9675;51.538;6.728;2023-04-27T08:14:05;101758.97;;;9.39;63.58
19086;BME280;9675;51.538;6.728;2023-04-27T08:16:39;101751.88;;;9.48;63.59
19086;BME280;9675;51.538;6.728;2023-04-27T08:19:07;101749.97;;;9.57;62.98
19086;BME280;9675;51.538;6.728;2023-04-27T08:21:35;101743.63;;;9.65;62.29
19086;BME280;9675;51.538;6.728;2023-04-27T08:24:02;101747.84;;;9.76;62.35
19086;BME280;9675;51.538;6.728;2023-04-27T08:26:31;101752.00;;;9.88;61.65
19086;BME280;9675;51.538;6.728;2023-04-27T08:28:58;101750.84;;;9.96;62.18
19086;BME280;9675;51.538;6.728;2023-04-27T08:31:25;101748.97;;;10.06;61.41
19086;BME280;9675;51.538;6.728;2023-04-27T08:33:55;101743.78;;;10.18;60.95
19086;BME280;9675;51.538;6.728;2023-04-27T08:36:23;101741.00;;;10.28;61.38
19086;BME280;9675;51.538;6.728;2023-04-27T08:38:51;101738.13;;;10.37;60.28
19086;BME280;9675;51.538;6.728;2023-04-27T08:41:18;101744.78;;;10.46;59.73
19086;BME280;9675;51.538;6.728;2023-04-27T08:43:47;101746.16;;;10.54;59.53
19086;BME280;9675;51.538;6.728;2023-04-27T08:46:18;101735.63;;;10.64;59.28
19086;BME280;9675;51.538;6.728;2023-04-27T08:48:48;101743.25;;;10.76;57.91
19086;BME280;9675;51.538;6.728;2023-04-27T08:51:17;101738.84;;;10.88;56.69
19086;BME280;9675;51.538;6.728;2023-04-27T08:53:50;101738.72;;;11.00;55.87
19086;BME280;9675;51.538;6.728;2023-04-27T08:56:17;101740.28;;;11.11;55.73
19086;BME280;9675;51.538;6.728;2023-04-27T08:58:45;101738.97;;;11.18;55.10
19086;BME280;9675;51.538;6.728;2023-04-27T09:01:12;101743.81;;;11.26;54.69
19086;BME280;9675;51.538;6.728;2023-04-27T09:03:39;101735.81;;;11.36;54.54
19086;BME280;9675;51.538;6.728;2023-04-27T09:06:06;101738.94;;;11.45;53.44
19086;BME280;9675;51.538;6.728;2023-04-27T09:08:43;101730.28;;;11.58;53.01
19086;BME280;9675;51.538;6.728;2023-04-27T09:11:11;101723.16;;;11.69;52.83
19086;BME280;9675;51.538;6.728;2023-04-27T09:13:42;101718.41;;;11.75;52.66
19086;BME280;9675;51.538;6.728;2023-04-27T09:16:12;101723.31;;;11.85;52.47
19086;BME280;9675;51.538;6.728;2023-04-27T09:18:42;101715.09;;;11.92;52.03
19086;BME280;9675;51.538;6.728;2023-04-27T09:21:09;101715.66;;;12.01;51.92
19086;BME280;9675;51.538;6.728;2023-04-27T09:23:38;101713.69;;;12.12;51.40
19086;BME280;9675;51.538;6.728;2023-04-27T09:26:07;101709.03;;;12.21;51.71
19086;BME280;9675;51.538;6.728;2023-04-27T09:28:38;101711.88;;;12.25;50.23
19086;BME280;9675;51.538;6.728;2023-04-27T10:01:20;101684.13;;;13.15;48.16
19086;BME280;9675;51.538;6.728;2023-04-27T10:04:07;101679.44;;;13.25;47.12
19086;BME280;9675;51.538;6.728;2023-04-27T10:06:58;101682.00;;;13.41;46.93
19086;BME280;9675;51.538;6.728;2023-04-27T10:09:26;101682.00;;;13.57;47.50
19086;BME280;9675;51.538;6.728;2023-04-27T10:12:12;101686.81;;;13.67;47.67
19086;BME280;9675;51.538;6.728;2023-04-27T10:14:51;101678.63;;;13.76;46.62
19086;BME280;9675;51.538;6.728;2023-04-27T10:17:24;101682.41;;;13.82;47.27
19086;BME280;9675;51.538;6.728;2023-04-27T10:19:56;101674.28;;;13.92;46.45
19086;BME280;9675;51.538;6.728;2023-04-27T10:22:36;101664.38;;;14.01;45.99
19086;BME280;9675;51.538;6.728;2023-04-27T10:25:15;101673.63;;;14.14;46.30
19086;BME280;9675;51.538;6.728;2023-04-27T10:27:47;101673.84;;;14.19;45.99
19086;BME280;9675;51.538;6.728;2023-04-27T10:30:18;101667.19;;;14.24;46.06
19086;BME280;9675;51.538;6.728;2023-04-27T10:32:55;101662.91;;;14.24;45.63
19086;BME280;9675;51.538;6.728;2023-04-27T10:35:32;101655.34;;;14.29;44.26
19086;BME280;9675;51.538;6.728;2023-04-27T10:38:08;101667.75;;;14.36;45.13
19086;BME280;9675;51.538;6.728;2023-04-27T10:40:36;101658.31;;;14.36;43.91
19086;BME280;9675;51.538;6.728;2023-04-27T10:43:09;101654.00;;;14.37;43.22
19086;BME280;9675;51.538;6.728;2023-04-27T10:45:37;101657.63;;;14.40;42.90
19086;BME280;9675;51.538;6.728;2023-04-27T10:48:06;101656.22;;;14.47;42.60
19086;BME280;9675;51.538;6.728;2023-04-27T10:50:33;101655.03;;;14.58;43.17
19086;BME280;9675;51.538;6.728;2023-04-27T10:53:04;101653.22;;;14.75;41.88
19086;BME280;9675;51.538;6.728;2023-04-27T10:55:33;101641.00;;;14.92;42.38
19086;BME280;9675;51.538;6.728;2023-04-27T10:58:01;101638.25;;;15.08;42.52
19086;BME280;9675;51.538;6.728;2023-04-27T11:00:30;101645.75;;;15.21;42.29
19086;BME280;9675;51.538;6.728;2023-04-27T11:03:13;101646.34;;;15.35;42.11
19086;BME280;9675;51.538;6.728;2023-04-27T11:05:42;101643.59;;;15.51;41.78
19086;BME280;9675;51.538;6.728;2023-04-27T11:08:11;101640.75;;;15.64;41.63
19086;BME280;9675;51.538;6.728;2023-04-27T11:10:40;101641.22;;;15.76;41.86
19086;BME280;9675;51.538;6.728;2023-04-27T11:13:11;101637.88;;;15.79;41.95
19086;BME280;9675;51.538;6.728;2023-04-27T11:15:46;101641.47;;;15.82;41.45
19086;BME280;9675;51.538;6.728;2023-04-27T11:18:17;101645.66;;;15.79;40.64
19086;BME280;9675;51.538;6.728;2023-04-27T11:20:48;101638.63;;;15.76;40.54
19086;BME280;9675;51.538;6.728;2023-04-27T11:23:26;101638.88;;;15.82;40.43
19086;BME280;9675;51.538;6.728;2023-04-27T11:25:54;101634.06;;;15.91;40.48
19086;BME280;9675;51.538;6.728;2023-04-27T11:28:22;101635.97;;;15.95;40.52
19086;BME280;9675;51.538;6.728;2023-04-27T11:30:55;101629.28;;;16.02;39.33
19086;BME280;9675;51.538;6.728;2023-04-27T11:33:24;101628.78;;;16.10;38.78
19086;BME280;9675;51.538;6.728;2023-04-27T11:35:51;101625.19;;;16.29;39.36
19086;BME280;9675;51.538;6.728;2023-04-27T11:38:19;101629.44;;;16.49;39.29
19086;BME280;9675;51.538;6.728;2023-04-27T11:40:58;101627.53;;;16.66;39.60
19086;BME280;9675;51.538;6.728;2023-04-27T11:43:27;101625.38;;;16.78;39.08
19086;BME280;9675;51.538;6.728;2023-04-27T11:45:55;101624.03;;;16.89;39.12
19086;BME280;9675;51.538;6.728;2023-04-27T11:48:26;101620.41;;;17.08;38.91
19086;BME280;9675;51.538;6.728;2023-04-27T11:50:56;101625.09;;;17.18;39.33
19086;BME280;9675;51.538;6.728;2023-04-27T11:53:29;101606.97;;;17.21;38.99
19086;BME280;9675;51.538;6.728;2023-04-27T11:55:59;101601.88;;;17.24;38.83
19086;BME280;9675;51.538;6.728;2023-04-27T11:58:28;101604.69;;;17.30;38.48
19086;BME280;9675;51.538;6.728;2023-04-27T12:00:56;101602.94;;;17.31;37.97
19086;BME280;9675;51.538;6.728;2023-04-27T12:03:24;101596.38;;;17.40;38.16
19086;BME280;9675;51.538;6.728;2023-04-27T12:05:52;101595.78;;;17.49;37.66
19086;BME280;9675;51.538;6.728;2023-04-27T12:08:19;101587.97;;;17.49;37.88
19086;BME280;9675;51.538;6.728;2023-04-27T12:10:46;101588.13;;;17.54;37.53
19086;BME280;9675;51.538;6.728;2023-04-27T12:13:14;101592.97;;;17.68;37.30
19086;BME280;9675;51.538;6.728;2023-04-27T12:15:41;101583.03;;;17.82;37.41
19086;BME280;9675;51.538;6.728;2023-04-27T12:18:09;101583.44;;;17.96;37.16
19086;BME280;9675;51.538;6.728;2023-04-27T12:20:38;101582.97;;;18.09;37.22
19086;BME280;9675;51.538;6.728;2023-04-27T12:23:05;101574.72;;;18.22;37.33
19086;BME280;9675;51.538;6.728;2023-04-27T12:25:32;101572.44;;;18.33;37.03
19086;BME280;9675;51.538;6.728;2023-04-27T12:28:01;101576.25;;;18.44;36.83
19086;BME280;9675;51.538;6.728;2023-04-27T12:30:28;101568.69;;;18.53;36.67
19086;BME280;9675;51.538;6.728;2023-04-27T12:32:55;101569.78;;;18.61;36.93
19086;BME280;9675;51.538;6.728;2023-04-27T12:35:24;101569.09;;;18.66;36.70
19086;BME280;9675;51.538;6.728;2023-04-27T12:37:52;101568.31;;;18.71;36.45
19086;BME280;9675;51.538;6.728;2023-04-27T12:40:19;101571.13;;;18.77;36.33
19086;BME280;9675;51.538;6.728;2023-04-27T12:42:47;101575.63;;;18.82;35.40
19086;BME280;9675;51.538;6.728;2023-04-27T12:45:15;101576.88;;;18.96;35.85
19086;BME280;9675;51.538;6.728;2023-04-27T12:47:42;101571.09;;;19.06;35.75
19086;BME280;9675;51.538;6.728;2023-04-27T12:50:09;101567.00;;;19.16;35.54
19086;BME280;9675;51.538;6.728;2023-04-27T12:52:36;101555.81;;;19.22;35.34
19086;BME280;9675;51.538;6.728;2023-04-27T12:55:05;101562.94;;;19.29;34.92
19086;BME280;9675;51.538;6.728;2023-04-27T12:57:34;101564.88;;;19.36;35.05
19086;BME280;9675;51.538;6.728;2023-04-27T13:00:01;101554.50;;;19.37;35.05
19086;BME280;9675;51.538;6.728;2023-04-27T13:02:29;101556.28;;;19.40;34.16
19086;BME280;9675;51.538;6.728;2023-04-27T13:04:56;101554.59;;;19.42;34.05
19086;BME280;9675;51.538;6.728;2023-04-27T13:07:23;101558.25;;;19.47;33.61
19086;BME280;9675;51.538;6.728;2023-04-27T13:09:50;101561.59;;;19.43;33.70
19086;BME280;9675;51.538;6.728;2023-04-27T13:12:18;101558.94;;;19.41;33.36
19086;BME280;9675;51.538;6.728;2023-04-27T13:14:45;101557.34;;;19.46;32.89
19086;BME280;9675;51.538;6.728;2023-04-27T13:17:12;101553.22;;;19.56;33.30
19086;BME280;9675;51.538;6.728;2023-04-27T13:19:40;101557.88;;;19.68;33.41
19086;BME280;9675;51.538;6.728;2023-04-27T13:22:07;101554.63;;;19.78;33.56
19086;BME280;9675;51.538;6.728;2023-04-27T13:24:35;101547.75;;;19.81;33.22
19086;BME280;9675;51.538;6.728;2023-04-27T13:27:02;101547.84;;;19.86;33.33
19086;BME280;9675;51.538;6.728;2023-04-27T13:29:31;101552.19;;;19.85;33.35
19086;BME280;9675;51.538;6.728;2023-04-27T13:31:58;101539.16;;;19.87;32.25
19086;BME280;9675;51.538;6.728;2023-04-27T13:34:25;101538.41;;;19.92;32.37
19086;BME280;9675;51.538;6.728;2023-04-27T13:36:52;101537.63;;;19.97;32.57
19086;BME280;9675;51.538;6.728;2023-04-27T13:39:19;101528.16;;;20.02;32.51
19086;BME280;9675;51.538;6.728;2023-04-27T13:41:46;101530.78;;;20.02;32.21
19086;BME280;9675;51.538;6.728;2023-04-27T13:44:13;101530.06;;;20.09;32.21